Aeroporto :
LOGIN :

Iscrizione | Disclaimer

   EN    FR    IT 

 










Sommario :    VFR   VFR Marginale   IFR   IFR Intensivo   IFR Molto Intensivo
Visibilità : 
Base nubi : 
>= 8 km
>= 3000ft
5 / 8 km
1000 / 3000 ft
1500m / 5 km
500 / 1000 ft
800 / 1500m
200 / 500 ft
< 800m
< 200 ft
Simboli :   Temporali  Nebbia  Neve Forte  Precipitazioni Forti  Vento > 20 kt
SIGMETs :   Varie  Temporali  Ghiacco  Turbolenza  Onda orograficha  Ceneri Vulcaniche






- Altitudine del aeroporto : 102 ft
- Codice IATA : CNG


LFBG - Cognac

ULTIMO METAR :
  • 211300Z AUTO 13007KT 090V150 CAVOK 16/09 Q1020 NOSIG

METARs OBSOLETI :
  • 211230Z AUTO 13008KT CAVOK 16/11 Q1020 NOSIG
  • 211200Z AUTO 14009KT CAVOK 15/10 Q1020 NOSIG
  • 211130Z AUTO 15010KT 9999 FEW019 15/10 Q1020 NOSIG
  • 211100Z AUTO 13007KT 100V170 9999 FEW023 SCT031 15/10 Q1020 NOSIG
  • 211030Z AUTO 12005KT 080V150 9999 FEW016 15/11 Q1019 NOSIG

TAF TAF LFBG
Valido dal 21 a 09 ore il 22 a 09 ore UTC


210800Z 2109/2209 13007KT 9999 BKN025
PROB40
TEMPO 2115/2117 FEW030TCU
BECMG 2117/2118 NSC
BECMG 2200/2202 0800 FG
TEMPO 2203/2209 0400 VV///



MetMap, La meteo Aeronautica in un colpo d'occhio ! - Copyright ORBIFLY Dicembre 2007 - Disclaimer

ORBIFLY MET'MAP TEAM :

Programmazione e sviluppo : Alexandra Zaïnal
Concezione e sviluppo : Baudouin d'Aumeries
Co-Programmazione e sviluppo : Marc-Olivier Méhu
Supporto tecnico e logistico : Manuel Goepfert
Aiuto per la traduzione : Arnaldo La Scala

Contatto : metmap@orbifly.com




FONTI E CREDITI :

   NOAA